Time;durP1;ratioP1;P1;durP2;ratioP2;P2;SDS_P1;SDS_P2;PMS_P1;PMS_P2;Temp;Humidity;BMP_temperature;BMP_pressure;BME280_temperature;BME280_humidity;BME280_pressure;Samples;Min_cycle;Max_cycle;Signal;HPM_P1;HPM_P2
2022/12/18 00:02:14;;;;;;;100.90;27.87;;;;;-2.40;97390.00;;;;8297374;28;20229;-68
2022/12/18 00:06:20;;;;;;;106.00;22.20;;;;;-2.40;97381.00;;;;8299726;28;20195;-68
2022/12/18 00:10:24;;;;;;;109.07;25.40;;;;;-2.40;97379.00;;;;8300799;28;20291;-68
2022/12/18 00:15:01;;;;;;;109.43;26.83;;;;;-2.40;97384.00;;;;8299801;28;20540;-68
2022/12/18 00:19:05;;;;;;;94.27;26.47;;;;;-2.40;97400.00;;;;8298989;28;20563;-68
2022/12/18 00:23:09;;;;;;;115.33;28.30;;;;;-2.40;97411.00;;;;8300833;28;20280;-68
2022/12/18 00:27:12;;;;;;;106.83;26.60;;;;;-2.40;97405.00;;;;8299529;28;20198;-68
2022/12/18 00:31:17;;;;;;;95.10;27.33;;;;;-2.40;97414.00;;;;8299012;28;20201;-68
2022/12/18 00:35:21;;;;;;;117.47;26.97;;;;;-2.40;97421.00;;;;8299160;28;20302;-68
2022/12/18 00:39:59;;;;;;;86.20;26.47;;;;;-2.30;97431.00;;;;8299589;28;20549;-68
2022/12/18 00:44:02;;;;;;;89.43;25.83;;;;;-2.30;97440.00;;;;8298690;28;20253;-68
2022/12/18 00:48:06;;;;;;;103.00;26.60;;;;;-2.20;97430.00;;;;8298808;28;20190;-68
2022/12/18 00:52:19;;;;;;;94.33;27.63;;;;;-2.20;97427.00;;;;8298897;28;20644;-68
2022/12/18 00:56:51;;;;;;;105.00;23.93;;;;;-2.20;97427.00;;;;8299609;28;20198;-68
2022/12/18 01:00:54;;;;;;;101.70;27.27;;;;;-2.30;97419.00;;;;8297910;28;20788;-68
2022/12/18 01:04:57;;;;;;;99.73;27.10;;;;;-2.30;97400.00;;;;8299533;28;20210;-68
2022/12/18 01:09:00;;;;;;;99.60;28.17;;;;;-2.40;97408.00;;;;8298435;28;20209;-68
2022/12/18 01:13:05;;;;;;;86.77;20.43;;;;;-2.50;97419.00;;;;8298193;28;20647;-68
2022/12/18 01:17:08;;;;;;;81.13;23.33;;;;;-2.60;97424.00;;;;8298809;28;20213;-68
2022/12/18 01:21:12;;;;;;;112.13;24.07;;;;;-2.60;97425.00;;;;8298092;28;20633;-68
2022/12/18 01:25:46;;;;;;;82.77;21.63;;;;;-2.70;97418.00;;;;8297243;28;20201;-68
2022/12/18 01:29:51;;;;;;;117.37;21.77;;;;;-2.70;97419.00;;;;8297967;28;20202;-68
2022/12/18 01:34:22;;;;;;;66.17;19.13;;;;;-2.70;97438.00;;;;8304070;28;20198;-68
2022/12/18 01:38:25;;;;;;;59.57;18.90;;;;;-2.70;97436.00;;;;8304949;28;20264;-68
2022/12/18 01:42:28;;;;;;;70.13;19.47;;;;;-2.60;97441.00;;;;8304768;28;20508;-68
2022/12/18 01:46:33;;;;;;;74.13;19.50;;;;;-2.50;97442.00;;;;8304806;28;20194;-68
2022/12/18 01:50:39;;;;;;;80.03;23.63;;;;;-2.40;97450.00;;;;8303877;28;20551;-69
2022/12/18 01:54:42;;;;;;;99.23;24.17;;;;;-2.30;97450.00;;;;8304779;28;20194;-69
2022/12/18 01:58:57;;;;;;;100.27;22.77;;;;;-2.30;97452.00;;;;8303744;28;20206;-68
2022/12/18 02:03:01;;;;;;;129.33;23.17;;;;;-2.30;97448.00;;;;8304109;28;20225;-68
2022/12/18 02:07:43;;;;;;;90.30;22.17;;;;;-2.20;97457.00;;;;8304258;28;20693;-68
2022/12/18 02:11:52;;;;;;;72.30;20.37;;;;;-2.20;97469.00;;;;8304285;28;20214;-69
2022/12/18 02:16:11;;;;;;;77.73;21.30;;;;;-2.10;97470.00;;;;8303506;28;20202;-69
2022/12/18 02:20:40;;;;;;;90.00;22.70;;;;;-2.00;97463.00;;;;8304444;28;20202;-69
2022/12/18 02:24:57;;;;;;;74.33;19.10;;;;;-2.00;97458.00;;;;8303755;28;20194;-69
2022/12/18 02:29:06;;;;;;;73.17;19.67;;;;;-2.00;97458.00;;;;8303605;28;20186;-69
2022/12/18 02:33:12;;;;;;;69.87;20.57;;;;;-2.00;97449.00;;;;8302809;28;20194;-69
2022/12/18 02:37:45;;;;;;;85.47;22.73;;;;;-2.00;97461.00;;;;8302616;28;20202;-70
2022/12/18 02:41:49;;;;;;;80.80;21.73;;;;;-2.00;97458.00;;;;8299940;28;20233;-70
2022/12/18 02:45:57;;;;;;;61.43;19.73;;;;;-2.00;97461.00;;;;8301914;28;20216;-69
2022/12/18 02:50:31;;;;;;;64.17;19.27;;;;;-2.00;97469.00;;;;8302897;28;20248;-69
2022/12/18 02:55:08;;;;;;;58.73;19.33;;;;;-2.00;97461.00;;;;8302136;28;20647;-69
2022/12/18 02:59:14;;;;;;;68.07;19.23;;;;;-2.00;97448.00;;;;8302333;28;20644;-70
2022/12/18 03:03:26;;;;;;;66.40;20.50;;;;;-2.00;97457.00;;;;8331434;22;20770;-69
2022/12/18 03:07:39;;;;;;;64.30;19.70;;;;;-1.90;97469.00;;;;8349024;28;20197;-69
2022/12/18 03:16:28;;;;;;;60.60;19.07;;;;;-2.00;97463.00;;;;8215500;28;20203;-69
2022/12/18 03:20:35;;;;;;;79.03;19.97;;;;;-1.90;97461.00;;;;8280552;28;20254;-69
2022/12/18 03:24:39;;;;;;;71.50;20.50;;;;;-1.80;97457.00;;;;8346979;28;20228;-69
2022/12/18 03:28:48;;;;;;;75.50;21.93;;;;;-1.80;97457.00;;;;8346815;28;20201;-69
2022/12/18 03:32:57;;;;;;;66.70;19.03;;;;;-1.80;97450.00;;;;8349443;28;20629;-69
2022/12/18 03:37:07;;;;;;;71.73;20.47;;;;;-1.80;97455.00;;;;8348341;28;20201;-69
2022/12/18 03:41:19;;;;;;;62.40;18.07;;;;;-1.80;97455.00;;;;8351505;28;20213;-70
2022/12/18 03:45:27;;;;;;;57.17;16.90;;;;;-1.90;97458.00;;;;8351771;28;20884;-69
2022/12/18 03:49:37;;;;;;;53.80;16.07;;;;;-1.90;97448.00;;;;8357379;28;20196;-69
2022/12/18 03:53:47;;;;;;;57.50;16.57;;;;;-1.90;97449.00;;;;8347032;28;20197;-69
2022/12/18 03:57:53;;;;;;;64.60;18.33;;;;;-2.00;97460.00;;;;8344636;28;20201;-69
2022/12/18 04:01:58;;;;;;;67.17;19.57;;;;;-2.00;97461.00;;;;8344501;28;20229;-68
2022/12/18 04:06:03;;;;;;;73.27;18.80;;;;;-2.00;97463.00;;;;8344279;28;20207;-69
2022/12/18 04:10:13;;;;;;;70.77;19.87;;;;;-2.00;97472.00;;;;8352838;28;20593;-69
2022/12/18 04:14:16;;;;;;;62.13;19.13;;;;;-2.00;97473.00;;;;8350444;28;20197;-68
2022/12/18 04:18:20;;;;;;;62.33;18.10;;;;;-2.00;97472.00;;;;8351813;28;20228;-68
2022/12/18 04:22:23;;;;;;;57.63;19.07;;;;;-2.00;97476.00;;;;8351072;28;20236;-68
2022/12/18 04:26:28;;;;;;;61.00;19.00;;;;;-2.10;97476.00;;;;8345588;28;20200;-68
2022/12/18 04:30:31;;;;;;;70.67;19.40;;;;;-2.10;97487.00;;;;8347822;28;20205;-69
2022/12/18 04:34:34;;;;;;;47.60;15.17;;;;;-2.10;97484.00;;;;8343613;28;20197;-69
2022/12/18 04:38:38;;;;;;;58.77;18.17;;;;;-2.10;97494.00;;;;8345064;28;20610;-68
2022/12/18 04:42:42;;;;;;;67.50;18.53;;;;;-2.00;97482.00;;;;8349318;28;20333;-68
2022/12/18 04:46:50;;;;;;;62.87;19.30;;;;;-2.00;97481.00;;;;8346874;28;20366;-68
2022/12/18 04:50:53;;;;;;;63.03;19.10;;;;;-1.90;97498.00;;;;8338358;28;20296;-69
2022/12/18 04:55:08;;;;;;;60.37;17.40;;;;;-1.90;97495.00;;;;8334623;28;20197;-70
2022/12/18 04:59:13;;;;;;;66.20;18.50;;;;;-2.00;97492.00;;;;8334907;28;20189;-70
2022/12/18 05:03:16;;;;;;;66.23;18.73;;;;;-2.00;97497.00;;;;8337182;28;20232;-70
2022/12/18 05:07:19;;;;;;;52.83;17.30;;;;;-2.00;97495.00;;;;8335772;28;20222;-70
2022/12/18 05:11:23;;;;;;;59.63;18.50;;;;;-2.00;97504.00;;;;8340392;28;20285;-70
2022/12/18 05:15:30;;;;;;;57.80;17.77;;;;;-2.00;97512.00;;;;8337157;28;20200;-70
2022/12/18 05:19:33;;;;;;;45.13;15.40;;;;;-2.10;97499.00;;;;8338770;28;20205;-70
2022/12/18 05:23:37;;;;;;;61.13;17.70;;;;;-2.00;97516.00;;;;8337342;28;20266;-70
2022/12/18 05:27:40;;;;;;;58.07;18.20;;;;;-2.00;97528.00;;;;8336441;28;20236;-70
2022/12/18 05:31:45;;;;;;;66.30;18.23;;;;;-1.90;97521.00;;;;8339287;28;20569;-70
2022/12/18 05:35:51;;;;;;;59.10;19.00;;;;;-1.90;97520.00;;;;8336918;28;20193;-70
2022/12/18 05:39:55;;;;;;;57.70;17.53;;;;;-1.80;97521.00;;;;8336963;28;20224;-70
2022/12/18 05:43:58;;;;;;;50.03;16.13;;;;;-1.80;97533.00;;;;8334537;28;20224;-70
2022/12/18 05:48:03;;;;;;;48.33;16.43;;;;;-1.90;97527.00;;;;8337939;28;20203;-70
2022/12/18 05:52:06;;;;;;;48.40;15.73;;;;;-1.90;97531.00;;;;8334760;28;20201;-70
2022/12/18 05:56:14;;;;;;;57.57;17.23;;;;;-1.90;97536.00;;;;8338985;28;20205;-70
2022/12/18 06:00:17;;;;;;;55.13;16.93;;;;;-2.00;97531.00;;;;8332517;28;20740;-70
2022/12/18 06:04:22;;;;;;;54.83;17.07;;;;;-2.00;97541.00;;;;8339443;28;20231;-70
2022/12/18 06:08:25;;;;;;;58.20;17.47;;;;;-2.10;97533.00;;;;8336933;28;20550;-71
2022/12/18 06:12:37;;;;;;;48.23;16.50;;;;;-2.10;97542.00;;;;8333870;28;20236;-70
2022/12/18 06:16:40;;;;;;;52.03;17.03;;;;;-2.10;97546.00;;;;8333918;28;20201;-70
2022/12/18 06:20:45;;;;;;;59.13;16.40;;;;;-2.10;97546.00;;;;8342372;28;20201;-70
2022/12/18 06:24:48;;;;;;;55.00;17.60;;;;;-2.20;97536.00;;;;8344573;28;20228;-71
2022/12/18 06:28:52;;;;;;;62.53;19.20;;;;;-2.20;97546.00;;;;8339242;28;20193;-70
2022/12/18 06:32:55;;;;;;;51.37;16.60;;;;;-2.20;97550.00;;;;8342858;28;20204;-71
2022/12/18 06:37:00;;;;;;;56.40;19.10;;;;;-2.20;97555.00;;;;8338477;28;20683;-71
2022/12/18 06:41:07;;;;;;;50.47;14.80;;;;;-2.20;97548.00;;;;8343939;28;20376;-70
2022/12/18 06:45:11;;;;;;;46.77;14.23;;;;;-2.30;97564.00;;;;8342768;28;20692;-71
2022/12/18 06:49:15;;;;;;;47.90;14.47;;;;;-2.30;97566.00;;;;8339533;28;20201;-71
2022/12/18 06:53:20;;;;;;;61.80;18.30;;;;;-2.30;97575.00;;;;8344660;28;20200;-71
2022/12/18 06:57:23;;;;;;;64.47;17.90;;;;;-2.30;97582.00;;;;8350549;28;20323;-70
2022/12/18 07:01:26;;;;;;;62.70;18.57;;;;;-2.30;97579.00;;;;8347426;28;20221;-70
2022/12/18 07:05:29;;;;;;;70.30;19.17;;;;;-2.30;97588.00;;;;8341390;28;20237;-70
2022/12/18 07:09:34;;;;;;;49.30;15.17;;;;;-2.30;97585.00;;;;8349431;28;20847;-70
2022/12/18 07:13:37;;;;;;;53.50;16.43;;;;;-2.40;97593.00;;;;8345412;28;20197;-71
2022/12/18 07:17:41;;;;;;;52.20;16.23;;;;;-2.30;97590.00;;;;8342476;28;20212;-69
2022/12/18 07:21:44;;;;;;;50.33;16.63;;;;;-2.30;97593.00;;;;8349964;28;20197;-70
2022/12/18 07:25:48;;;;;;;49.50;14.87;;;;;-2.30;97574.00;;;;8346585;28;20286;-69
2022/12/18 07:29:53;;;;;;;45.77;15.50;;;;;-2.30;97565.00;;;;8346371;28;20205;-70
2022/12/18 07:33:57;;;;;;;59.70;17.00;;;;;-2.20;97578.00;;;;8345808;28;20209;-70
2022/12/18 07:38:00;;;;;;;50.83;16.17;;;;;-2.10;97570.00;;;;8346103;28;20204;-70
2022/12/18 07:46:26;;;;;;;55.43;18.23;;;;;-2.00;97585.00;;;;8343368;28;20229;-70
2022/12/18 07:50:29;;;;;;;37.63;12.33;;;;;-2.10;97585.00;;;;8351952;28;20633;-70
2022/12/18 07:54:32;;;;;;;46.53;14.70;;;;;-2.10;97594.00;;;;8344449;28;20196;-69
2022/12/18 07:58:37;;;;;;;53.20;16.00;;;;;-2.00;97596.00;;;;8345488;28;20227;-69
2022/12/18 08:02:40;;;;;;;59.57;17.00;;;;;-2.00;97597.00;;;;8352213;28;20238;-71
2022/12/18 08:06:44;;;;;;;57.83;16.57;;;;;-2.00;97593.00;;;;8352473;28;20232;-71
2022/12/18 08:10:50;;;;;;;58.10;17.67;;;;;-1.90;97607.00;;;;8337235;28;20227;-71
2022/12/18 08:14:54;;;;;;;59.10;17.90;;;;;-1.80;97611.00;;;;8350555;28;20201;-72
2022/12/18 08:18:57;;;;;;;56.03;17.40;;;;;-1.70;97620.00;;;;8347579;28;20198;-71
2022/12/18 08:23:00;;;;;;;57.13;17.30;;;;;-1.60;97616.00;;;;8340031;28;20198;-71
2022/12/18 08:27:04;;;;;;;57.40;17.40;;;;;-1.50;97635.00;;;;8342518;28;20226;-70
2022/12/18 08:31:30;;;;;;;59.50;17.60;;;;;-1.40;97637.00;;;;8338871;28;20224;-70
2022/12/18 08:35:37;;;;;;;59.63;17.73;;;;;-1.40;97632.00;;;;8352063;28;20287;-71
2022/12/18 08:39:47;;;;;;;59.73;17.83;;;;;-1.40;97633.00;;;;8334909;28;20202;-72
2022/12/18 08:48:13;;;;;;;64.87;18.47;;;;;-1.10;97633.00;;;;8337491;28;20571;-72
2022/12/18 08:52:23;;;;;;;63.90;19.37;;;;;-1.10;97640.00;;;;8335279;28;20225;-72
2022/12/18 08:56:26;;;;;;;50.87;15.40;;;;;-1.00;97649.00;;;;8338055;28;20550;-72
2022/12/18 09:00:32;;;;;;;48.10;16.73;;;;;-1.00;97644.00;;;;8339928;28;20201;-71
2022/12/18 09:04:36;;;;;;;56.70;16.87;;;;;-1.00;97649.00;;;;8341598;28;20700;-72
2022/12/18 09:08:39;;;;;;;48.10;15.13;;;;;-0.90;97636.00;;;;8351216;28;20247;-72
2022/12/18 09:12:43;;;;;;;50.37;16.17;;;;;-0.90;97642.00;;;;8347599;28;20638;-72
2022/12/18 09:16:46;;;;;;;268.70;66.03;;;;;-0.90;97646.00;;;;8348058;28;20205;-72
2022/12/18 09:20:52;;;;;;;186.80;53.37;;;;;-0.90;97646.00;;;;8345336;28;20201;-72
2022/12/18 09:24:55;;;;;;;412.53;116.23;;;;;-0.80;97648.00;;;;8341222;28;20230;-72
2022/12/18 09:28:58;;;;;;;49.60;18.70;;;;;-0.70;97642.00;;;;8345769;28;20201;-72
2022/12/18 09:33:01;;;;;;;67.97;25.20;;;;;-0.80;97643.00;;;;8347535;28;20193;-73
2022/12/18 09:37:07;;;;;;;62.63;22.40;;;;;-0.70;97636.00;;;;8343198;28;20207;-72
2022/12/18 09:41:26;;;;;;;64.93;20.80;;;;;-0.60;97636.00;;;;8342717;28;20550;-72
2022/12/18 09:45:32;;;;;;;72.80;31.43;;;;;-0.50;97619.00;;;;8345348;28;20621;-72
2022/12/18 09:49:38;;;;;;;61.23;20.70;;;;;-0.60;97629.00;;;;8345948;28;20688;-72
2022/12/18 09:53:46;;;;;;;54.17;18.37;;;;;-0.50;97627.00;;;;8341740;28;20189;-72
2022/12/18 09:57:54;;;;;;;603.10;236.37;;;;;-0.40;97623.00;;;;8351163;28;20202;-72
2022/12/18 10:01:57;;;;;;;56.17;21.73;;;;;-0.40;97621.00;;;;8360672;28;20237;-73
2022/12/18 10:06:08;;;;;;;52.57;18.67;;;;;-0.40;97622.00;;;;8349661;28;20331;-72
2022/12/18 10:10:23;;;;;;;64.47;25.53;;;;;-0.30;97624.00;;;;8353604;28;20193;-73
2022/12/18 10:14:34;;;;;;;55.30;23.77;;;;;-0.20;97617.00;;;;8355370;28;20244;-73
2022/12/18 10:18:58;;;;;;;51.60;16.07;;;;;-0.20;97624.00;;;;8347088;28;20256;-73
2022/12/18 10:23:09;;;;;;;49.03;18.80;;;;;-0.10;97608.00;;;;8341698;28;20201;-73
2022/12/18 10:27:16;;;;;;;85.37;51.70;;;;;-0.10;97622.00;;;;8353270;28;20284;-73
2022/12/18 10:31:22;;;;;;;47.93;16.93;;;;;-0.10;97610.00;;;;8343386;28;20198;-72
2022/12/18 10:35:27;;;;;;;47.50;17.10;;;;;-0.10;97607.00;;;;8360327;28;20198;-73
2022/12/18 10:39:31;;;;;;;37.27;15.37;;;;;-0.10;97606.00;;;;8347823;28;20201;-73
2022/12/18 10:43:36;;;;;;;50.90;14.57;;;;;0.00;97602.00;;;;8352133;28;20209;-73
2022/12/18 10:47:44;;;;;;;46.60;15.70;;;;;0.00;97590.00;;;;8345746;28;20649;-73
2022/12/18 10:51:47;;;;;;;49.80;16.47;;;;;-0.10;97588.00;;;;8351621;28;20754;-72
2022/12/18 10:55:53;;;;;;;51.67;15.77;;;;;-0.20;97581.00;;;;8352472;28;20208;-74
2022/12/18 10:59:59;;;;;;;38.47;14.40;;;;;-0.10;97602.00;;;;8352806;28;20390;-73
2022/12/18 11:04:09;;;;;;;73.60;24.43;;;;;0.00;97597.00;;;;8351377;28;20224;-73
2022/12/18 11:08:22;;;;;;;43.80;15.63;;;;;0.20;97594.00;;;;8343326;28;20256;-74
2022/12/18 11:12:30;;;;;;;48.73;17.53;;;;;0.10;97605.00;;;;8336969;28;20206;-73
2022/12/18 11:16:43;;;;;;;37.67;14.23;;;;;0.10;97606.00;;;;8340300;28;20790;-73
2022/12/18 11:21:09;;;;;;;36.13;13.50;;;;;0.00;97608.00;;;;8354534;28;20202;-75
2022/12/18 11:25:20;;;;;;;142.37;58.73;;;;;0.10;97600.00;;;;8335682;28;20233;-73
2022/12/18 11:29:40;;;;;;;532.70;143.27;;;;;0.20;97610.00;;;;8329611;28;20293;-75
2022/12/18 11:33:58;;;;;;;88.90;32.67;;;;;0.30;97600.00;;;;8334259;28;20565;-75
2022/12/18 11:38:25;;;;;;;74.63;26.27;;;;;0.30;97603.00;;;;8349178;28;20258;-75
2022/12/18 11:42:36;;;;;;;71.33;26.27;;;;;0.50;97611.00;;;;8344384;28;20198;-76
2022/12/18 11:46:46;;;;;;;51.77;19.63;;;;;0.50;97596.00;;;;8350675;28;20238;-76
2022/12/18 11:50:53;;;;;;;49.67;17.53;;;;;0.40;97606.00;;;;8345596;28;20201;-76
2022/12/18 11:54:59;;;;;;;42.50;15.63;;;;;0.30;97605.00;;;;8345128;28;20216;-74
2022/12/18 11:59:14;;;;;;;44.43;19.10;;;;;0.10;97606.00;;;;8340518;28;20602;-74
2022/12/18 12:03:39;;;;;;;43.63;15.80;;;;;0.10;97608.00;;;;8337780;28;20241;-74
2022/12/18 12:07:53;;;;;;;31.73;13.30;;;;;0.10;97594.00;;;;8336959;28;20229;-74
2022/12/18 12:12:08;;;;;;;49.27;15.43;;;;;0.00;97575.00;;;;8334674;28;20945;-74
2022/12/18 12:16:19;;;;;;;42.73;15.77;;;;;-0.10;97574.00;;;;8337786;28;20201;-75
2022/12/18 12:20:33;;;;;;;48.73;16.73;;;;;0.00;97571.00;;;;8339513;28;20201;-75
2022/12/18 12:24:55;;;;;;;50.97;17.63;;;;;0.10;97553.00;;;;8339469;28;20268;-74
2022/12/18 12:29:10;;;;;;;42.47;15.70;;;;;0.10;97548.00;;;;8337654;28;20761;-75
2022/12/18 12:33:31;;;;;;;46.77;17.83;;;;;0.10;97549.00;;;;8345312;28;20197;-74
2022/12/18 12:37:43;;;;;;;47.10;17.47;;;;;0.10;97550.00;;;;8344876;28;20205;-74
2022/12/18 12:46:11;;;;;;;48.73;18.63;;;;;0.00;97549.00;;;;8350909;28;20233;-75
2022/12/18 12:50:17;;;;;;;51.23;17.87;;;;;-0.10;97561.00;;;;8350718;28;20227;-75
2022/12/18 12:54:23;;;;;;;55.67;17.87;;;;;-0.10;97561.00;;;;8345078;28;20800;-75
2022/12/18 12:58:37;;;;;;;50.77;17.80;;;;;0.00;97549.00;;;;8340256;28;20212;-76
2022/12/18 13:02:49;;;;;;;47.43;16.67;;;;;-0.10;97543.00;;;;8342469;28;20336;-77
2022/12/18 13:07:01;;;;;;;55.60;19.97;;;;;0.00;97549.00;;;;8348210;28;20224;-79
2022/12/18 13:15:43;;;;;;;55.60;18.33;;;;;0.20;97558.00;;;;8238053;28;20198;-77
2022/12/18 13:20:12;;;;;;;48.93;17.10;;;;;0.20;97559.00;;;;8295365;28;20229;-77
2022/12/18 13:24:24;;;;;;;52.87;18.03;;;;;0.10;97555.00;;;;8345040;28;20196;-78
2022/12/18 13:28:51;;;;;;;44.40;15.63;;;;;-0.10;97555.00;;;;8343499;28;20229;-77
2022/12/18 13:33:48;;;;;;;48.57;17.90;;;;;-0.30;97553.00;;;;8344142;28;20582;-78
2022/12/18 13:38:25;;;;;;;46.60;16.93;;;;;-0.50;97551.00;;;;8354938;28;20219;-79
2022/12/18 13:47:03;;;;;;;51.93;18.20;;;;;-0.80;97535.00;;;;8348994;28;20231;-79
2022/12/18 13:51:08;;;;;;;38.10;15.27;;;;;-0.90;97537.00;;;;8351732;28;20213;-79
2022/12/18 13:55:19;;;;;;;51.33;17.83;;;;;-1.00;97531.00;;;;8340451;28;20212;-77
2022/12/18 13:59:26;;;;;;;47.27;15.83;;;;;-1.00;97544.00;;;;8346060;28;20205;-79
2022/12/18 14:03:30;;;;;;;59.50;19.07;;;;;-1.10;97537.00;;;;8348132;28;20244;-77
2022/12/18 14:07:33;;;;;;;50.57;17.70;;;;;-1.10;97544.00;;;;8343358;28;20298;-78
2022/12/18 14:11:52;;;;;;;50.93;17.47;;;;;-1.20;97547.00;;;;8355523;28;20197;-80
2022/12/18 14:15:57;;;;;;;48.27;18.43;;;;;-1.30;97541.00;;;;8347340;28;20205;-80
2022/12/18 14:20:01;;;;;;;48.07;17.67;;;;;-1.40;97537.00;;;;8342317;28;20193;-78
2022/12/18 14:24:07;;;;;;;53.50;18.10;;;;;-1.40;97525.00;;;;8343507;28;20196;-79
2022/12/18 14:28:16;;;;;;;55.70;19.37;;;;;-1.50;97528.00;;;;8346493;28;20590;-79
2022/12/18 14:32:21;;;;;;;89.37;34.43;;;;;-1.70;97526.00;;;;8345933;28;20251;-80
2022/12/18 14:36:25;;;;;;;52.73;18.30;;;;;-1.90;97524.00;;;;8351137;28;20934;-79
2022/12/18 14:40:28;;;;;;;57.60;19.77;;;;;-2.00;97523.00;;;;8350611;28;20235;-79
2022/12/18 14:44:33;;;;;;;56.47;19.03;;;;;-2.10;97516.00;;;;8357674;28;20227;-79
2022/12/18 14:48:57;;;;;;;58.17;19.03;;;;;-2.30;97512.00;;;;8343609;28;20581;-79
2022/12/18 14:53:00;;;;;;;67.80;21.00;;;;;-2.40;97523.00;;;;8347381;28;20212;-78
2022/12/18 14:57:07;;;;;;;52.73;18.87;;;;;-2.50;97531.00;;;;8347967;28;20872;-77
2022/12/18 15:01:32;;;;;;;54.00;19.47;;;;;-2.60;97531.00;;;;8348585;28;20731;-76
2022/12/18 15:05:37;;;;;;;60.83;19.20;;;;;-2.80;97532.00;;;;8343108;28;20233;-76
2022/12/18 15:09:42;;;;;;;51.97;18.30;;;;;-2.90;97530.00;;;;8345656;28;20282;-76
2022/12/18 15:13:45;;;;;;;56.50;19.57;;;;;-3.00;97534.00;;;;8330829;28;20189;-76
2022/12/18 15:17:59;;;;;;;59.20;19.37;;;;;-3.10;97532.00;;;;8356711;28;20247;-76
2022/12/18 15:22:02;;;;;;;61.03;19.93;;;;;-3.20;97535.00;;;;8341701;28;20747;-77
2022/12/18 15:26:10;;;;;;;52.43;18.80;;;;;-3.30;97533.00;;;;8348381;28;20225;-76
2022/12/18 15:30:19;;;;;;;59.63;19.30;;;;;-3.40;97525.00;;;;8340564;28;20208;-76
2022/12/18 15:34:25;;;;;;;54.43;18.07;;;;;-3.50;97531.00;;;;8347924;28;20205;-75
2022/12/18 15:38:28;;;;;;;57.77;20.00;;;;;-3.60;97531.00;;;;8350044;28;20199;-75
2022/12/18 15:46:52;;;;;;;60.13;20.50;;;;;-3.80;97536.00;;;;8344709;28;20221;-75
2022/12/18 15:50:58;;;;;;;57.57;18.07;;;;;-3.90;97532.00;;;;8343441;28;20808;-75
2022/12/18 15:59:22;;;;;;;54.67;16.70;;;;;-4.00;97536.00;;;;8340378;28;20197;-76
2022/12/18 16:03:25;;;;;;;55.80;19.43;;;;;-4.10;97538.00;;;;8346759;28;20233;-76
2022/12/18 16:07:30;;;;;;;49.73;18.87;;;;;-4.20;97544.00;;;;8350021;28;20228;-75
2022/12/18 16:11:41;;;;;;;58.03;18.37;;;;;-4.30;97543.00;;;;8346615;28;20566;-75
2022/12/18 16:15:44;;;;;;;54.37;17.40;;;;;-4.30;97531.00;;;;8341271;28;20204;-75
2022/12/18 16:19:48;;;;;;;53.93;17.40;;;;;-4.40;97531.00;;;;8334585;28;20287;-72
2022/12/18 16:23:52;;;;;;;47.60;17.17;;;;;-4.40;97526.00;;;;8346936;28;20819;-72
2022/12/18 16:27:56;;;;;;;48.77;17.53;;;;;-4.40;97528.00;;;;8343788;28;20238;-73
2022/12/18 16:32:01;;;;;;;53.50;18.63;;;;;-4.40;97522.00;;;;8342616;28;20196;-72
2022/12/18 16:36:04;;;;;;;56.57;21.33;;;;;-4.40;97520.00;;;;8342318;28;20204;-72
2022/12/18 16:40:12;;;;;;;79.27;23.43;;;;;-4.40;97525.00;;;;8348503;28;20721;-73
2022/12/18 16:44:15;;;;;;;47.37;17.93;;;;;-4.40;97516.00;;;;8342466;28;20255;-72
2022/12/18 16:48:18;;;;;;;47.60;16.83;;;;;-4.50;97530.00;;;;8344702;28;20293;-72
2022/12/18 16:52:21;;;;;;;47.57;18.00;;;;;-4.50;97527.00;;;;8347479;28;20185;-72
2022/12/18 16:56:26;;;;;;;46.43;16.53;;;;;-4.60;97505.00;;;;8339434;28;20235;-72
2022/12/18 17:00:29;;;;;;;47.30;17.17;;;;;-4.60;97516.00;;;;8339601;28;20204;-72
2022/12/18 17:04:32;;;;;;;70.50;22.20;;;;;-4.60;97519.00;;;;8348924;28;20233;-72
2022/12/18 17:08:35;;;;;;;64.07;20.80;;;;;-4.60;97518.00;;;;8333859;28;20224;-71
2022/12/18 17:12:41;;;;;;;52.97;18.97;;;;;-4.60;97513.00;;;;8341681;28;20298;-72
2022/12/18 17:16:45;;;;;;;61.90;22.80;;;;;-4.60;97505.00;;;;8331894;28;20211;-71
2022/12/18 17:20:49;;;;;;;68.87;22.13;;;;;-4.60;97529.00;;;;8332787;28;20208;-71
2022/12/18 17:24:52;;;;;;;48.27;18.17;;;;;-4.70;97515.00;;;;8342821;28;20645;-71
2022/12/18 17:28:57;;;;;;;89.30;39.47;;;;;-4.70;97517.00;;;;8348697;28;20231;-71
2022/12/18 17:33:06;;;;;;;56.73;18.50;;;;;-4.70;97518.00;;;;8335694;28;20211;-71
2022/12/18 17:37:09;;;;;;;52.17;18.87;;;;;-4.80;97514.00;;;;8344955;28;20204;-70
2022/12/18 17:41:12;;;;;;;51.37;18.90;;;;;-4.80;97498.00;;;;8332336;28;21784;-70
2022/12/18 17:45:17;;;;;;;55.00;20.20;;;;;-4.80;97492.00;;;;8337955;28;20255;-70
2022/12/18 17:49:20;;;;;;;60.60;18.97;;;;;-4.80;97495.00;;;;8339628;28;20223;-70
2022/12/18 17:53:23;;;;;;;52.70;19.27;;;;;-4.80;97495.00;;;;8337502;28;20216;-70
2022/12/18 17:57:26;;;;;;;59.47;19.50;;;;;-4.80;97497.00;;;;8337552;28;20204;-70
2022/12/18 18:01:31;;;;;;;58.37;19.67;;;;;-4.80;97489.00;;;;8341359;28;20258;-70
2022/12/18 18:05:34;;;;;;;56.60;20.33;;;;;-4.80;97493.00;;;;8336945;28;20201;-70
2022/12/18 18:09:37;;;;;;;62.97;22.07;;;;;-4.80;97488.00;;;;8338090;28;20228;-69
2022/12/18 18:18:16;;;;;;;61.93;21.17;;;;;-4.80;97474.00;;;;8331738;28;20204;-69
2022/12/18 18:22:22;;;;;;;46.53;16.33;;;;;-4.80;97489.00;;;;8342735;28;20223;-69
2022/12/18 18:26:28;;;;;;;50.27;19.03;;;;;-4.70;97487.00;;;;8344650;28;20196;-69
2022/12/18 18:30:32;;;;;;;61.63;21.90;;;;;-4.70;97490.00;;;;8343090;28;20231;-69
2022/12/18 18:34:36;;;;;;;61.77;20.77;;;;;-4.70;97493.00;;;;8333458;28;20776;-69
2022/12/18 18:38:40;;;;;;;55.13;19.07;;;;;-4.70;97487.00;;;;8341873;28;20204;-70
2022/12/18 18:42:50;;;;;;;61.87;20.27;;;;;-4.70;97491.00;;;;8342770;28;20204;-69
2022/12/18 18:46:55;;;;;;;52.93;19.27;;;;;-4.60;97500.00;;;;8341171;28;20352;-69
2022/12/18 18:51:01;;;;;;;62.83;21.50;;;;;-4.50;97502.00;;;;8339434;28;20289;-69
2022/12/18 18:55:05;;;;;;;57.43;21.63;;;;;-4.50;97491.00;;;;8338814;28;21609;-69
2022/12/18 18:59:27;;;;;;;57.03;21.57;;;;;-4.40;97498.00;;;;8339264;28;20204;-69
2022/12/18 19:03:34;;;;;;;65.50;21.20;;;;;-4.30;97492.00;;;;8344787;28;20283;-69
2022/12/18 19:07:38;;;;;;;61.73;22.37;;;;;-4.30;97484.00;;;;8348680;28;20389;-69
2022/12/18 19:16:04;;;;;;;54.47;20.23;;;;;-4.20;97469.00;;;;8334493;28;20557;-69
2022/12/18 19:20:09;;;;;;;64.70;22.67;;;;;-4.20;97468.00;;;;8341324;28;20193;-69
2022/12/18 19:24:15;;;;;;;69.87;27.97;;;;;-4.10;97475.00;;;;8337963;28;20200;-69
2022/12/18 19:28:20;;;;;;;56.93;21.47;;;;;-4.10;97467.00;;;;8338129;28;20225;-70
2022/12/18 19:32:25;;;;;;;60.73;22.33;;;;;-4.10;97474.00;;;;8340638;28;20214;-69
2022/12/18 19:36:30;;;;;;;57.57;22.57;;;;;-4.00;97473.00;;;;8346252;28;20758;-70
2022/12/18 19:40:35;;;;;;;53.90;21.23;;;;;-3.90;97474.00;;;;8346759;28;20201;-70
2022/12/18 19:44:38;;;;;;;62.47;21.70;;;;;-3.80;97464.00;;;;8345498;28;20231;-70
2022/12/18 19:48:42;;;;;;;53.07;20.63;;;;;-3.80;97464.00;;;;8344289;28;20225;-71
2022/12/18 19:52:46;;;;;;;54.13;19.33;;;;;-3.70;97472.00;;;;8336894;28;20245;-71
2022/12/18 19:56:51;;;;;;;61.73;22.20;;;;;-3.70;97469.00;;;;8344843;28;20201;-71
2022/12/18 20:00:57;;;;;;;60.23;21.63;;;;;-3.70;97463.00;;;;8347014;28;20225;-70
2022/12/18 20:05:00;;;;;;;62.70;22.17;;;;;-3.60;97465.00;;;;8349591;28;20239;-72
2022/12/18 20:09:06;;;;;;;62.90;22.57;;;;;-3.60;97466.00;;;;8339871;28;20224;-72
2022/12/18 20:13:10;;;;;;;63.40;23.70;;;;;-3.60;97471.00;;;;8340417;28;20560;-71
2022/12/18 20:17:16;;;;;;;67.23;22.90;;;;;-3.50;97469.00;;;;8342442;28;20865;-71
2022/12/18 20:21:24;;;;;;;62.30;20.30;;;;;-3.40;97469.00;;;;8333633;28;20198;-71
2022/12/18 20:25:27;;;;;;;65.60;22.77;;;;;-3.40;97467.00;;;;8344174;28;20251;-71
2022/12/18 20:29:32;;;;;;;62.20;21.40;;;;;-3.40;97482.00;;;;8335408;28;20263;-72
2022/12/18 20:33:35;;;;;;;75.70;25.67;;;;;-3.40;97470.00;;;;8340810;28;20200;-72
2022/12/18 20:37:40;;;;;;;66.40;22.33;;;;;-3.30;97466.00;;;;8349730;28;20699;-71
2022/12/18 20:41:52;;;;;;;59.77;20.23;;;;;-3.30;97464.00;;;;8341414;28;20204;-72
2022/12/18 20:46:02;;;;;;;51.13;20.43;;;;;-3.40;97464.00;;;;8343910;28;20245;-72
2022/12/18 20:50:06;;;;;;;58.57;21.63;;;;;-3.50;97467.00;;;;8334721;28;20690;-72
2022/12/18 20:54:10;;;;;;;64.57;19.77;;;;;-3.50;97454.00;;;;8342215;28;20197;-72